Time;durP1;ratioP1;P1;durP2;ratioP2;P2;SDS_P1;SDS_P2;PMS_P1;PMS_P2;Temp;Humidity;BMP_temperature;BMP_pressure;BME280_temperature;BME280_humidity;BME280_pressure;Samples;Min_cycle;Max_cycle;Signal;HPM_P1;HPM_P2
2022/05/27 00:01:07;;;;;;;10.02;7.78;;;;;;;16.92;99.72;93704.38;4969965;28;20047;-82
2022/05/27 00:03:34;;;;;;;9.38;7.30;;;;;;;16.93;99.70;93711.13;4971567;28;20054;-83
2022/05/27 00:06:01;;;;;;;13.05;8.23;;;;;;;16.79;99.81;93691.72;4971026;28;20051;-83
2022/05/27 00:08:29;;;;;;;15.38;9.02;;;;;;;16.91;100.00;93702.03;4971339;28;20062;-83
2022/05/27 00:10:56;;;;;;;12.98;7.97;;;;;;;16.83;99.91;93688.44;4971074;28;20078;-83
2022/05/27 00:13:23;;;;;;;11.57;8.68;;;;;;;16.90;100.00;93703.03;4968318;28;20053;-82
2022/05/27 00:15:50;;;;;;;13.88;8.98;;;;;;;16.83;100.00;93698.00;4970393;28;20438;-84
2022/05/27 00:18:17;;;;;;;13.80;9.02;;;;;;;16.64;100.00;93685.28;4963084;28;20054;-82
2022/05/27 00:20:45;;;;;;;13.30;8.48;;;;;;;16.65;100.00;93705.00;4961264;28;20051;-84
2022/05/27 00:23:12;;;;;;;13.30;9.38;;;;;;;16.41;100.00;93666.25;4962172;28;20046;-84
2022/05/27 00:25:40;;;;;;;13.27;8.65;;;;;;;16.52;100.00;93689.75;4967955;28;20439;-84
2022/05/27 00:28:07;;;;;;;11.45;8.82;;;;;;;16.36;100.00;93686.09;4970579;28;20050;-84
2022/05/27 00:30:35;;;;;;;15.07;9.32;;;;;;;16.36;100.00;93691.28;4970491;28;20074;-84
2022/05/27 00:33:02;;;;;;;15.27;9.50;;;;;;;16.32;100.00;93688.38;4970634;28;20050;-83
2022/05/27 00:35:28;;;;;;;12.30;9.10;;;;;;;16.35;100.00;93687.13;4970794;28;20051;-85
2022/05/27 00:37:56;;;;;;;12.07;8.80;;;;;;;16.39;100.00;93691.59;4971093;28;20428;-85
2022/05/27 00:40:25;;;;;;;12.57;8.70;;;;;;;16.44;100.00;93688.34;4970811;28;20046;-84
2022/05/27 00:42:53;;;;;;;13.23;8.35;;;;;;;16.50;100.00;93681.41;4985431;28;20050;-85
2022/05/27 00:45:22;;;;;;;15.40;8.77;;;;;;;16.46;100.00;93690.66;4989805;28;20046;-84
2022/05/27 00:47:53;;;;;;;13.13;9.23;;;;;;;16.32;100.00;93662.47;4989869;28;20058;-84
2022/05/27 00:50:25;;;;;;;13.57;9.38;;;;;;;16.43;100.00;93671.97;4989372;28;20045;-85
2022/05/27 00:52:53;;;;;;;11.93;8.35;;;;;;;16.43;100.00;93677.16;4989523;28;20074;-86
2022/05/27 00:55:23;;;;;;;13.80;8.30;;;;;;;16.35;100.00;93680.16;4989223;28;20406;-85
2022/05/27 00:57:56;;;;;;;12.70;7.63;;;;;;;16.37;100.00;93688.47;4989069;28;20557;-84
2022/05/27 01:00:26;;;;;;;13.30;8.15;;;;;;;16.32;100.00;93685.78;4989416;28;20038;-85
2022/05/27 01:02:55;;;;;;;13.68;8.25;;;;;;;16.32;100.00;93683.19;4989576;28;20050;-85
2022/05/27 01:05:24;;;;;;;12.90;8.25;;;;;;;16.32;100.00;93682.41;4989212;28;20520;-85
2022/05/27 01:07:53;;;;;;;11.82;8.18;;;;;;;16.23;100.00;93679.41;4989149;28;20054;-85
2022/05/27 01:10:20;;;;;;;12.65;9.18;;;;;;;16.11;100.00;93671.72;4989128;28;20057;-85
2022/05/27 01:13:03;;;;;;;10.40;8.02;;;;;;;16.03;100.00;93675.44;4989570;28;20042;-85
2022/05/27 01:15:39;;;;;;;11.40;7.90;;;;;;;16.06;100.00;93682.75;4989790;28;20050;-86
2022/05/27 01:18:14;;;;;;;;;;;;;;;16.05;100.00;93683.78;4988715;28;20409;-86
2022/05/27 01:20:51;;;;;;;15.35;8.98;;;;;;;15.98;100.00;93677.94;4988938;28;19933;-86
2022/05/27 01:23:50;;;;;;;11.73;7.65;;;;;;;15.84;100.00;93657.44;4988650;28;20101;-85
2022/05/27 01:26:42;;;;;;;10.75;7.82;;;;;;;15.97;100.00;93671.19;4974910;28;20430;-86
2022/05/27 01:29:42;;;;;;;11.43;8.00;;;;;;;15.92;100.00;93666.66;4988303;28;20050;-86
2022/05/27 01:32:15;;;;;;;13.30;7.43;;;;;;;15.82;100.00;93646.53;4955890;28;20512;-84
2022/05/27 01:34:53;;;;;;;10.13;7.65;;;;;;;15.88;100.00;93663.75;4988919;28;20489;-84
2022/05/27 01:37:26;;;;;;;11.07;7.35;;;;;;;15.83;100.00;93671.44;4988048;28;20097;-84
2022/05/27 01:40:02;;;;;;;10.20;7.13;;;;;;;15.82;100.00;93656.09;4988774;28;20174;-85
2022/05/27 01:42:34;;;;;;;10.80;7.70;;;;;;;15.84;100.00;93664.44;4988643;28;20054;-85
2022/05/27 01:45:08;;;;;;;11.07;7.20;;;;;;;15.65;100.00;93632.75;4988316;28;20414;-85
2022/05/27 01:47:41;;;;;;;12.90;7.05;;;;;;;15.72;100.00;93661.88;4987841;28;20058;-84
2022/05/27 01:50:13;;;;;;;11.75;7.05;;;;;;;15.65;100.00;93654.28;4987864;28;20409;-85
2022/05/27 01:52:49;;;;;;;9.63;7.05;;;;;;;15.67;100.00;93665.19;4988213;28;20042;-90
2022/05/27 01:55:22;;;;;;;14.10;7.22;;;;;;;15.67;100.00;93659.19;4989088;28;20050;-86
2022/05/27 01:57:56;;;;;;;10.65;6.95;;;;;;;15.31;100.00;93597.16;4987256;28;20039;-86
2022/05/27 02:00:25;;;;;;;9.32;6.65;;;;;;;15.75;100.00;93653.69;4988603;28;20051;-86
2022/05/27 02:02:57;;;;;;;11.18;7.85;;;;;;;15.75;100.00;93657.03;4987030;28;20061;-85
2022/05/27 02:05:30;;;;;;;8.32;5.90;;;;;;;15.72;100.00;93652.34;4987718;28;20053;-84
2022/05/27 02:08:00;;;;;;;11.23;7.18;;;;;;;15.65;100.00;93650.88;4988516;28;20512;-84
2022/05/27 02:10:33;;;;;;;8.60;6.40;;;;;;;15.60;100.00;93647.19;4987608;28;20046;-83
2022/05/27 02:13:06;;;;;;;9.20;6.40;;;;;;;15.57;100.00;93652.84;4989079;28;20046;-84
2022/05/27 02:15:38;;;;;;;8.93;5.68;;;;;;;15.58;100.00;93653.59;4989265;28;20441;-84
2022/05/27 02:18:13;;;;;;;9.35;5.28;;;;;;;15.31;100.00;93638.56;4987392;28;20046;-84
2022/05/27 02:20:45;;;;;;;10.50;5.22;;;;;;;15.29;100.00;93649.19;4987715;28;20061;-83
2022/05/27 02:23:20;;;;;;;8.23;5.60;;;;;;;15.19;100.00;93654.13;4989519;28;20055;-83
2022/05/27 02:25:49;;;;;;;8.85;5.28;;;;;;;15.16;100.00;93657.16;4989094;28;20386;-83
2022/05/27 02:28:20;;;;;;;7.68;5.57;;;;;;;15.14;100.00;93651.44;4988710;28;20058;-83
2022/05/27 02:30:50;;;;;;;10.13;5.95;;;;;;;15.03;100.00;93645.25;4988938;28;20374;-83
2022/05/27 02:36:12;;;;;;;10.00;5.47;;;;;;;15.16;100.00;93652.00;4988954;28;20129;-82
2022/05/27 02:38:39;;;;;;;8.30;5.78;;;;;;;15.22;100.00;93651.09;4986971;28;20050;-81
2022/05/27 02:41:12;;;;;;;8.07;5.65;;;;;;;15.26;100.00;93654.00;4988826;28;20069;-83
2022/05/27 02:44:00;;;;;;;9.93;6.03;;;;;;;15.18;100.00;93655.16;4986675;28;20047;-83
2022/05/27 02:46:38;;;;;;;10.85;6.03;;;;;;;15.05;100.00;93654.34;4987058;28;20489;-84
2022/05/27 02:49:17;;;;;;;8.40;6.10;;;;;;;14.90;100.00;93638.53;4990375;28;20077;-84
2022/05/27 02:51:48;;;;;;;9.02;5.85;;;;;;;14.91;100.00;93640.88;4991111;28;20058;-85
2022/05/27 02:54:25;;;;;;;10.05;6.63;;;;;;;14.84;100.00;93640.22;4991129;28;20493;-86
2022/05/27 02:57:00;;;;;;;10.82;6.60;;;;;;;14.87;100.00;93652.69;4992014;28;20058;-86
2022/05/27 02:59:30;;;;;;;8.57;6.03;;;;;;;14.89;100.00;93647.28;4990595;28;20073;-86
2022/05/27 03:02:04;;;;;;;13.68;6.95;;;;;;;14.83;100.00;93631.66;4992280;28;20054;-85
2022/05/27 03:04:33;;;;;;;11.95;5.97;;;;;;;14.93;100.00;93651.78;4990777;28;20046;-81
2022/05/27 03:07:10;;;;;;;8.95;5.72;;;;;;;14.92;100.00;93650.22;4990378;28;20054;-80
2022/05/27 03:09:49;;;;;;;10.02;5.78;;;;;;;14.98;100.00;93653.69;4992475;28;20512;-80
2022/05/27 03:12:35;;;;;;;9.00;5.38;;;;;;;14.90;100.00;93647.06;4990917;28;20057;-80
2022/05/27 03:15:25;;;;;;;11.00;6.03;;;;;;;14.89;100.00;93653.25;4990747;28;20397;-80
2022/05/27 03:18:05;;;;;;;11.63;6.20;;;;;;;14.88;100.00;93654.28;4991411;28;20042;-79
2022/05/27 03:20:47;;;;;;;10.82;5.25;;;;;;;14.83;100.00;93643.81;4990341;28;20050;-78
2022/05/27 03:23:40;;;;;;;13.85;5.85;;;;;;;14.97;100.00;93646.97;4990252;28;20054;-78
2022/05/27 03:26:19;;;;;;;16.42;8.13;;;;;;;15.09;100.00;93657.31;4990710;28;20050;-79
2022/05/27 03:28:54;;;;;;;11.60;6.30;;;;;;;15.11;100.00;93660.44;4990371;28;20050;-79
2022/05/27 03:31:30;;;;;;;10.33;5.37;;;;;;;15.12;100.00;93658.63;4990700;28;20049;-83
2022/05/27 03:34:11;;;;;;;10.00;5.70;;;;;;;15.10;100.00;93664.81;4992068;28;20058;-81
2022/05/27 03:36:45;;;;;;;13.52;6.30;;;;;;;15.14;100.00;93662.56;4990467;28;20050;-81
2022/05/27 03:39:18;;;;;;;11.82;5.93;;;;;;;15.15;100.00;93669.34;4992031;28;20065;-81
2022/05/27 03:41:51;;;;;;;10.02;5.07;;;;;;;15.05;100.00;93645.81;4991434;28;20046;-83
2022/05/27 03:44:20;;;;;;;9.48;5.65;;;;;;;15.14;100.00;93651.44;4989502;28;20050;-82
2022/05/27 03:46:50;;;;;;;8.90;5.15;;;;;;;14.89;100.00;93614.47;4991641;28;20042;-82
2022/05/27 03:49:17;;;;;;;12.63;5.20;;;;;;;15.22;100.00;93667.41;4991947;28;20054;-82
2022/05/27 03:51:55;;;;;;;8.07;5.35;;;;;;;15.25;100.00;93655.03;4989537;28;20046;-82
2022/05/27 03:54:22;;;;;;;9.18;6.25;;;;;;;15.27;100.00;93664.13;4989855;28;20063;-82
2022/05/27 03:56:50;;;;;;;9.43;5.40;;;;;;;15.29;100.00;93659.53;4987654;28;20039;-82
2022/05/27 03:59:19;;;;;;;6.88;4.63;;;;;;;15.38;100.00;93662.56;4991517;28;20046;-82
2022/05/27 04:01:48;;;;;;;7.53;5.15;;;;;;;15.35;100.00;93645.69;4990687;28;20054;-82
2022/05/27 04:04:17;;;;;;;10.30;5.63;;;;;;;15.57;100.00;93655.41;4991319;28;20050;-82
2022/05/27 04:06:47;;;;;;;11.95;6.00;;;;;;;15.59;100.00;93643.03;4991288;28;20043;-82
2022/05/27 04:09:14;;;;;;;15.05;6.13;;;;;;;15.73;100.00;93648.72;4990953;28;20046;-82
2022/05/27 04:11:41;;;;;;;10.80;5.60;;;;;;;15.79;100.00;93652.19;4991031;28;20050;-83
2022/05/27 04:14:08;;;;;;;13.00;5.97;;;;;;;15.85;100.00;93642.72;4991107;28;20042;-83
2022/05/27 04:16:35;;;;;;;15.18;7.00;;;;;;;15.85;100.00;93647.88;4991084;28;20097;-83
2022/05/27 04:19:02;;;;;;;9.40;5.82;;;;;;;15.93;100.00;93647.56;4990544;28;20038;-82
2022/05/27 04:21:29;;;;;;;10.98;6.10;;;;;;;15.85;100.00;93627.16;4990985;28;20053;-82
2022/05/27 04:23:58;;;;;;;13.98;6.13;;;;;;;16.01;100.00;93643.78;4991057;28;20042;-83
2022/05/27 04:26:25;;;;;;;12.82;6.28;;;;;;;15.93;100.00;93624.25;4989340;28;20090;-82
2022/05/27 04:28:52;;;;;;;15.48;7.13;;;;;;;15.93;100.00;93628.63;4988738;28;20050;-83
2022/05/27 04:31:19;;;;;;;12.90;6.68;;;;;;;16.14;100.00;93645.31;4990711;28;20042;-83
2022/05/27 04:33:46;;;;;;;13.88;6.38;;;;;;;16.21;100.00;93645.16;4990566;28;20042;-84
2022/05/27 04:36:15;;;;;;;12.45;6.65;;;;;;;16.33;100.00;93650.31;4990405;28;20493;-83
2022/05/27 04:38:42;;;;;;;11.63;7.00;;;;;;;16.40;100.00;93649.09;4988958;28;20121;-83
2022/05/27 04:41:10;;;;;;;12.80;6.75;;;;;;;16.29;100.00;93639.59;4990303;28;20043;-79
2022/05/27 04:43:37;;;;;;;14.50;6.63;;;;;;;16.31;100.00;93637.56;4990117;28;20043;-81
2022/05/27 04:46:04;;;;;;;10.63;5.93;;;;;;;16.07;100.00;93635.09;4990426;28;20391;-80
2022/05/27 04:48:31;;;;;;;15.93;7.05;;;;;;;16.39;100.00;93657.13;4990247;28;20497;-82
2022/05/27 04:50:58;;;;;;;12.50;6.63;;;;;;;16.33;100.00;93640.69;4990694;28;20404;-84
2022/05/27 04:53:25;;;;;;;17.10;6.88;;;;;;;16.42;100.00;93649.66;4990345;28;20050;-85
2022/05/27 04:55:52;;;;;;;11.88;6.88;;;;;;;16.37;100.00;93643.59;4990355;28;20050;-85
2022/05/27 04:58:30;;;;;;;12.48;7.40;;;;;;;16.55;100.00;93658.94;4990037;28;20050;-87
2022/05/27 05:00:59;;;;;;;12.73;6.45;;;;;;;16.62;100.00;93652.81;4989936;28;20043;-85
2022/05/27 05:03:26;;;;;;;12.25;5.95;;;;;;;16.58;100.00;93652.50;4972596;28;20049;-85
2022/05/27 05:05:52;;;;;;;11.32;6.75;;;;;;;16.77;100.00;93660.03;4990554;28;20137;-84
2022/05/27 05:08:32;;;;;;;13.13;6.75;;;;;;;16.94;100.00;93647.06;4989931;28;20543;-84
2022/05/27 05:10:59;;;;;;;14.57;7.40;;;;;;;17.03;99.48;93640.47;4988724;28;20482;-85
2022/05/27 05:13:34;;;;;;;17.83;7.90;;;;;;;16.96;99.12;93614.63;4990270;28;20520;-84
2022/05/27 05:16:04;;;;;;;20.17;8.55;;;;;;;17.42;98.08;93654.44;4988290;28;20046;-84
2022/05/27 05:18:31;;;;;;;15.32;7.18;;;;;;;17.65;95.93;93650.03;4988218;28;20050;-85
2022/05/27 05:20:57;;;;;;;22.50;8.68;;;;;;;17.85;94.78;93652.06;4987935;28;20058;-85
2022/05/27 05:23:24;;;;;;;17.42;7.72;;;;;;;17.92;92.67;93623.28;4989904;28;20475;-86
2022/05/27 05:25:51;;;;;;;20.50;8.35;;;;;;;18.28;90.69;93658.25;4989820;28;20391;-85
2022/05/27 05:28:18;;;;;;;21.55;9.35;;;;;;;18.51;90.01;93656.34;4989354;28;20117;-83
2022/05/27 05:30:45;;;;;;;22.80;9.90;;;;;;;18.71;87.64;93652.34;4989772;28;20046;-80
2022/05/27 05:33:13;;;;;;;25.35;10.77;;;;;;;18.94;85.21;93653.00;4989561;28;20505;-82
2022/05/27 05:35:41;;;;;;;27.88;12.38;;;;;;;19.08;84.79;93648.19;4989321;28;20050;-83
2022/05/27 05:38:08;;;;;;;32.33;13.55;;;;;;;19.34;82.46;93656.91;4989734;28;20047;-82
2022/05/27 05:40:35;;;;;;;34.28;14.98;;;;;;;19.45;82.20;93646.53;4989496;28;20058;-82
2022/05/27 05:43:02;;;;;;;38.28;14.40;;;;;;;19.72;82.72;93654.19;4987374;28;20050;-82
2022/05/27 05:45:29;;;;;;;31.20;13.05;;;;;;;19.92;81.07;93654.50;4989215;28;20046;-81
2022/05/27 05:47:56;;;;;;;28.95;11.65;;;;;;;20.10;81.45;93653.28;4989295;28;20054;-82
2022/05/27 05:50:25;;;;;;;27.95;11.32;;;;;;;20.23;80.91;93657.97;4989310;28;20046;-82
2022/05/27 05:52:55;;;;;;;27.77;11.38;;;;;;;20.27;77.54;93655.66;4989105;28;20042;-82
2022/05/27 05:55:22;;;;;;;33.03;12.63;;;;;;;20.31;76.30;93655.91;4987621;28;20043;-82
2022/05/27 05:57:50;;;;;;;29.85;11.02;;;;;;;20.36;76.05;93656.69;4987397;28;20494;-82
2022/05/27 06:00:20;;;;;;;20.80;10.02;;;;;;;20.45;76.86;93650.97;4989100;28;20074;-82
2022/05/27 06:02:47;;;;;;;27.92;10.55;;;;;;;20.62;75.07;93654.09;4988809;28;20042;-82
2022/05/27 06:05:14;;;;;;;26.42;11.10;;;;;;;20.50;75.46;93653.59;4988698;28;20424;-82
2022/05/27 06:07:43;;;;;;;23.92;9.60;;;;;;;20.52;72.10;93651.50;4988954;28;20046;-83
2022/05/27 06:10:12;;;;;;;27.73;9.70;;;;;;;20.07;74.70;93651.16;4988989;28;20042;-83
2022/05/27 06:12:39;;;;;;;26.38;9.85;;;;;;;20.41;75.41;93651.47;4989380;28;20504;-82
2022/05/27 06:15:09;;;;;;;32.15;9.57;;;;;;;20.85;71.53;93656.44;4986989;28;20051;-82
2022/05/27 06:17:36;;;;;;;38.88;10.32;;;;;;;21.21;71.03;93645.97;4986898;28;20053;-82
2022/05/27 06:20:03;;;;;;;22.65;8.73;;;;;;;20.83;70.64;93639.19;4988831;28;20152;-82
2022/05/27 06:22:31;;;;;;;29.02;9.18;;;;;;;20.81;69.97;93637.91;4988873;28;20512;-82
2022/05/27 06:25:00;;;;;;;22.45;9.50;;;;;;;20.88;69.11;93646.25;4988210;28;20634;-82
2022/05/27 06:27:27;;;;;;;25.10;8.82;;;;;;;20.99;71.16;93652.28;4988903;28;20514;-82
2022/05/27 06:35:23;;;;;;;24.88;8.13;;;;;;;21.66;66.67;93658.34;4988720;28;20057;-81
2022/05/27 06:37:50;;;;;;;18.27;6.43;;;;;;;21.67;65.57;93665.13;4989794;28;20417;-81
2022/05/27 06:40:23;;;;;;;17.35;7.22;;;;;;;22.00;63.78;93642.00;4989057;28;20129;-81
2022/05/27 06:42:49;;;;;;;22.08;7.00;;;;;;;22.43;64.99;93647.47;4989087;28;20054;-81
2022/05/27 06:45:25;;;;;;;24.42;8.00;;;;;;;21.96;63.90;93643.59;4989232;28;20149;-81
2022/05/27 06:47:52;;;;;;;22.23;6.85;;;;;;;21.85;64.81;93645.50;4987554;28;20062;-81
2022/05/27 06:50:19;;;;;;;23.52;7.03;;;;;;;21.76;64.43;93640.03;4987962;28;20498;-81
2022/05/27 06:52:46;;;;;;;18.45;5.63;;;;;;;22.32;62.18;93632.13;4989304;28;20050;-80
2022/05/27 06:55:16;;;;;;;15.93;5.40;;;;;;;22.09;62.76;93634.34;4988322;28;20520;-81
2022/05/27 06:57:44;;;;;;;16.40;5.80;;;;;;;22.47;61.06;93639.06;4988472;28;20121;-80
2022/05/27 07:00:13;;;;;;;16.15;5.72;;;;;;;22.56;59.92;93619.13;4988431;28;20044;-82
2022/05/27 07:02:40;;;;;;;18.63;5.75;;;;;;;23.36;59.00;93626.75;4988506;28;20050;-80
2022/05/27 07:05:08;;;;;;;13.32;6.07;;;;;;;23.88;55.70;93629.53;4988378;28;20444;-81
2022/05/27 07:07:35;;;;;;;18.67;5.85;;;;;;;24.45;56.94;93625.34;4988322;28;20470;-83
2022/05/27 07:10:02;;;;;;;21.25;6.22;;;;;;;24.59;53.18;93620.16;4988293;28;20409;-82
2022/05/27 07:12:29;;;;;;;21.42;5.78;;;;;;;24.40;52.43;93615.69;4988770;28;20054;-83
2022/05/27 07:14:57;;;;;;;16.80;5.68;;;;;;;23.93;52.95;93630.53;4983295;28;20448;-83
2022/05/27 07:17:24;;;;;;;22.10;5.93;;;;;;;24.51;52.90;93612.91;4986550;28;20423;-83
2022/05/27 07:19:51;;;;;;;12.07;5.20;;;;;;;25.08;53.62;93611.97;4987690;28;20042;-83
2022/05/27 07:22:17;;;;;;;17.92;5.68;;;;;;;25.21;51.50;93602.53;4986210;28;20394;-86
2022/05/27 07:24:44;;;;;;;13.75;4.85;;;;;;;25.47;50.03;93597.56;4987855;28;20046;-85
2022/05/27 07:27:11;;;;;;;15.27;5.03;;;;;;;25.53;46.92;93606.13;4988238;28;20042;-84
2022/05/27 07:29:38;;;;;;;11.20;4.13;;;;;;;25.53;48.09;93598.25;4987966;28;20054;-83
2022/05/27 07:32:06;;;;;;;17.13;5.70;;;;;;;25.34;47.63;93593.88;4987862;28;20497;-83
2022/05/27 07:34:33;;;;;;;19.45;6.57;;;;;;;25.35;47.20;93594.66;4988028;28;20509;-82
2022/05/27 07:37:01;;;;;;;18.30;6.40;;;;;;;25.96;49.47;93585.81;4990770;28;20046;-83
2022/05/27 07:39:28;;;;;;;16.08;5.57;;;;;;;25.37;48.01;93578.56;4991304;28;20505;-83
2022/05/27 07:41:55;;;;;;;15.48;5.57;;;;;;;25.60;47.94;93579.47;4991441;28;20536;-82
2022/05/27 07:44:22;;;;;;;17.38;5.32;;;;;;;26.10;47.50;93572.59;4991409;28;20489;-81
2022/05/27 07:46:52;;;;;;;13.23;4.75;;;;;;;26.08;48.36;93528.16;4991220;28;20050;-82
2022/05/27 07:49:20;;;;;;;22.13;6.40;;;;;;;26.29;46.46;93559.28;4991171;28;20054;-82
2022/05/27 07:51:47;;;;;;;17.05;6.43;;;;;;;26.37;48.36;93557.75;4991111;28;20531;-81
2022/05/27 07:54:14;;;;;;;17.48;6.25;;;;;;;26.95;47.12;93563.19;4991573;28;20046;-81
2022/05/27 07:56:42;;;;;;;25.15;6.68;;;;;;;27.47;46.94;93567.06;4991024;28;20038;-82
2022/05/27 07:59:09;;;;;;;16.13;5.60;;;;;;;28.04;43.96;93570.69;4991009;28;20046;-83
2022/05/27 08:01:37;;;;;;;15.00;5.95;;;;;;;28.03;41.82;93549.91;4991173;28;20141;-81
2022/05/27 08:04:04;;;;;;;22.75;5.28;;;;;;;28.27;42.26;93554.69;4991076;28;20046;-82
2022/05/27 08:06:32;;;;;;;16.15;5.38;;;;;;;28.11;42.36;93564.94;4991251;28;20042;-82
2022/05/27 08:08:59;;;;;;;16.92;5.88;;;;;;;27.78;42.86;93562.78;4988724;28;20046;-83
2022/05/27 08:11:26;;;;;;;17.40;5.53;;;;;;;28.24;43.07;93545.53;4991206;28;20054;-81
2022/05/27 08:13:55;;;;;;;12.10;4.90;;;;;;;28.68;42.54;93552.59;4990993;28;20050;-82
2022/05/27 08:16:21;;;;;;;12.73;4.88;;;;;;;28.53;41.54;93553.88;4990856;28;20043;-81
2022/05/27 08:18:48;;;;;;;16.52;6.43;;;;;;;29.03;41.71;93549.06;4991097;28;20042;-81
2022/05/27 08:21:16;;;;;;;13.73;5.35;;;;;;;28.74;40.25;93548.69;4989243;28;20055;-82
2022/05/27 08:23:44;;;;;;;14.43;5.53;;;;;;;28.05;40.49;93553.00;4991199;28;20065;-84
2022/05/27 08:26:11;;;;;;;9.80;4.85;;;;;;;27.52;42.54;93531.81;4990683;28;20046;-82
2022/05/27 08:28:38;;;;;;;14.82;5.07;;;;;;;26.67;44.13;93464.00;4990865;28;20050;-83
2022/05/27 08:31:05;;;;;;;14.60;4.53;;;;;;;27.26;44.26;93528.06;4991017;28;20054;-82
2022/05/27 08:38:59;;;;;;;10.30;3.53;;;;;;;27.59;41.35;93543.50;4989922;28;20061;-84
2022/05/27 08:41:40;;;;;;;11.48;3.60;;;;;;;27.94;40.84;93520.84;4990307;28;20065;-82
2022/05/27 08:44:17;;;;;;;11.32;4.28;;;;;;;28.05;40.99;93516.78;4989706;28;20046;-83
2022/05/27 08:46:55;;;;;;;10.43;4.45;;;;;;;28.91;40.36;93518.00;4989677;28;21424;-83
2022/05/27 08:49:26;;;;;;;16.10;4.70;;;;;;;28.98;39.18;93505.09;4988845;28;20042;-81
2022/05/27 08:52:00;;;;;;;10.32;4.35;;;;;;;29.25;38.80;93520.78;4988988;28;20039;-80
2022/05/27 08:54:34;;;;;;;11.65;4.20;;;;;;;29.66;38.33;93507.94;4990388;28;20077;-80
2022/05/27 08:59:52;;;;;;;10.45;3.90;;;;;;;28.64;39.23;93502.22;4989780;28;20061;-80
2022/05/27 09:02:27;;;;;;;9.27;3.42;;;;;;;29.33;36.66;93509.38;4988067;28;20050;-81
2022/05/27 09:05:03;;;;;;;14.50;5.27;;;;;;;29.92;37.07;93510.38;4990564;28;20077;-81
2022/05/27 09:07:37;;;;;;;10.32;3.85;;;;;;;30.02;36.95;93519.03;4990714;28;20109;-82
2022/05/27 09:10:10;;;;;;;12.60;4.00;;;;;;;29.81;34.68;93522.47;4988119;28;20046;-80
2022/05/27 09:12:48;;;;;;;11.75;3.88;;;;;;;30.04;35.01;93519.47;4988400;28;20762;-79
2022/05/27 09:15:23;;;;;;;10.63;3.55;;;;;;;29.33;35.58;93517.31;4989719;28;20038;-81
2022/05/27 09:18:03;;;;;;;7.82;2.47;;;;;;;29.05;35.82;93510.63;4988157;28;20382;-81
2022/05/27 09:20:40;;;;;;;6.88;2.83;;;;;;;28.66;36.95;93492.09;4989520;28;20406;-80
2022/05/27 09:23:26;;;;;;;8.38;3.08;;;;;;;29.33;36.39;93504.88;4988154;28;20050;-79
2022/05/27 09:26:02;;;;;;;8.90;2.55;;;;;;;29.53;35.76;93496.50;4987868;28;20053;-79
2022/05/27 09:28:40;;;;;;;6.07;2.38;;;;;;;29.92;34.91;93499.78;4980655;28;20125;-80
2022/05/27 09:31:09;;;;;;;5.80;2.88;;;;;;;29.31;34.79;93508.94;4979732;28;20395;-80
2022/05/27 09:33:38;;;;;;;7.53;2.60;;;;;;;29.91;35.85;93492.16;4980272;28;20502;-80
2022/05/27 09:36:09;;;;;;;8.15;2.72;;;;;;;29.44;34.15;93481.44;4982317;28;20043;-79
2022/05/27 09:38:42;;;;;;;12.85;4.35;;;;;;;30.23;34.09;93493.25;4981208;28;20973;-80
2022/05/27 09:41:23;;;;;;;7.40;2.38;;;;;;;30.62;35.19;93490.38;4986994;28;20046;-80
2022/05/27 09:43:56;;;;;;;9.38;2.78;;;;;;;31.19;34.58;93473.91;4988485;28;20053;-82
2022/05/27 09:46:27;;;;;;;6.30;2.80;;;;;;;31.61;33.95;93467.53;4988999;28;20046;-82
2022/05/27 09:48:57;;;;;;;9.93;2.83;;;;;;;32.11;33.36;93478.75;4989024;28;20137;-82
2022/05/27 09:51:26;;;;;;;10.77;3.20;;;;;;;32.42;33.49;93468.50;4986550;28;20042;-80
2022/05/27 09:53:55;;;;;;;9.05;2.88;;;;;;;32.60;31.13;93455.66;4989147;28;20042;-80
2022/05/27 09:56:37;;;;;;;10.30;2.60;;;;;;;32.76;31.75;93457.53;4988879;28;20050;-80
2022/05/27 09:59:20;;;;;;;7.22;2.60;;;;;;;31.52;32.85;93454.38;4987844;28;20050;-79
2022/05/27 10:01:48;;;;;;;5.75;2.28;;;;;;;31.87;32.75;93471.66;4988427;28;20069;-80
2022/05/27 10:04:16;;;;;;;10.27;2.97;;;;;;;31.25;31.98;93464.63;4989105;28;20061;-80
2022/05/27 10:06:44;;;;;;;8.07;2.67;;;;;;;31.44;33.14;93458.75;4988464;28;20043;-79
2022/05/27 10:09:26;;;;;;;8.93;3.10;;;;;;;31.35;31.53;93463.41;4988665;28;20074;-80
2022/05/27 10:11:56;;;;;;;9.55;3.00;;;;;;;32.11;33.17;93440.75;4988936;28;20843;-81
2022/05/27 10:14:27;;;;;;;6.10;2.38;;;;;;;32.36;31.83;93441.38;4988684;28;20082;-80
2022/05/27 10:17:09;;;;;;;7.95;2.70;;;;;;;32.08;31.68;93444.88;4989133;28;20412;-80
2022/05/27 10:19:37;;;;;;;9.18;2.90;;;;;;;31.72;29.96;93443.91;4988590;28;20043;-81
2022/05/27 10:22:06;;;;;;;9.10;2.80;;;;;;;31.80;31.57;93436.91;4983654;28;20573;-82
2022/05/27 10:24:36;;;;;;;6.25;2.65;;;;;;;30.48;30.60;93435.03;4987127;28;20058;-79
2022/05/27 10:27:10;;;;;;;8.68;3.00;;;;;;;28.86;33.98;93439.63;4987832;28;20043;-81
2022/05/27 10:29:51;;;;;;;6.60;3.13;;;;;;;28.80;34.35;93440.91;4988118;28;20418;-80
2022/05/27 10:32:35;;;;;;;13.32;3.40;;;;;;;28.98;35.20;93417.81;4987782;28;20453;-81
2022/05/27 10:35:04;;;;;;;13.63;3.83;;;;;;;30.06;34.15;93419.25;4986927;28;20050;-81
2022/05/27 10:37:56;;;;;;;8.18;3.05;;;;;;;30.22;32.54;93425.50;4988887;28;20453;-80
2022/05/27 10:40:35;;;;;;;8.10;2.95;;;;;;;29.41;33.74;93415.16;4985928;28;20069;-81
2022/05/27 10:43:25;;;;;;;7.43;2.33;;;;;;;29.28;33.29;93414.31;4984754;28;20050;-82
2022/05/27 10:45:55;;;;;;;5.15;2.22;;;;;;;29.47;35.28;93419.94;4987476;28;20046;-81
2022/05/27 10:48:53;;;;;;;11.43;2.67;;;;;;;30.34;34.42;93392.16;4987484;28;20883;-83
2022/05/27 10:51:34;;;;;;;10.80;3.67;;;;;;;31.01;31.64;93410.47;4984658;28;20386;-81
2022/05/27 10:54:21;;;;;;;7.60;2.88;;;;;;;30.90;33.31;93404.88;4985779;28;20043;-81
2022/05/27 11:03:00;;;;;;;7.95;2.45;;;;;;;31.47;33.28;93398.91;4988013;28;20049;-81
2022/05/27 11:05:43;;;;;;;4.93;1.67;;;;;;;31.71;32.53;93376.75;4986206;28;20097;-81
2022/05/27 11:08:23;;;;;;;8.43;2.50;;;;;;;31.86;30.62;93356.69;4977499;28;20047;-82
2022/05/27 11:11:03;;;;;;;8.50;2.25;;;;;;;31.88;31.71;93366.94;4983885;28;20078;-82
2022/05/27 11:16:49;;;;;;;4.80;2.22;;;;;;;32.23;31.09;93370.81;4989768;28;20065;-84
2022/05/27 11:19:35;;;;;;;6.25;2.58;;;;;;;32.68;29.94;93370.72;4989922;28;20409;-82
2022/05/27 11:22:16;;;;;;;7.28;2.50;;;;;;;32.04;30.31;93368.84;4991765;28;20522;-83
2022/05/27 11:24:57;;;;;;;8.77;2.38;;;;;;;30.43;31.35;93360.25;4991823;28;20050;-81
2022/05/27 11:27:37;;;;;;;6.28;2.67;;;;;;;31.04;30.81;93364.72;4990714;28;20065;-81
2022/05/27 11:30:11;;;;;;;7.07;2.75;;;;;;;31.81;31.89;93351.59;4989898;28;20404;-82
2022/05/27 11:32:58;;;;;;;7.30;2.70;;;;;;;32.46;31.63;93340.97;4990339;28;20165;-81
2022/05/27 11:35:36;;;;;;;7.78;2.30;;;;;;;33.07;30.81;93340.78;4990549;28;20134;-84
2022/05/27 11:38:21;;;;;;;4.40;2.00;;;;;;;33.56;28.82;93342.09;4991515;28;20049;-84
2022/05/27 11:40:55;;;;;;;;;;;;;;;33.98;29.56;93341.25;4992457;28;20047;-83
2022/05/27 11:43:37;;;;;;;5.70;2.10;;;;;;;34.22;29.37;93325.28;4989247;28;19928;-84
2022/05/27 11:46:34;;;;;;;5.07;2.10;;;;;;;32.83;28.17;93332.66;4992988;28;20141;-81
2022/05/27 11:49:18;;;;;;;8.85;2.38;;;;;;;32.34;30.44;93329.31;4986919;28;20046;-80
2022/05/27 11:51:58;;;;;;;7.38;1.92;;;;;;;32.56;31.43;93321.06;4990900;28;20521;-82
2022/05/27 11:54:39;;;;;;;14.98;3.60;;;;;;;32.26;30.34;93319.66;4991807;28;20061;-82
2022/05/27 11:57:23;;;;;;;5.47;2.28;;;;;;;32.99;30.28;93311.34;4993281;28;20046;-81
2022/05/27 11:59:55;;;;;;;4.75;2.53;;;;;;;33.18;30.59;93315.13;4990857;28;20057;-79
2022/05/27 12:02:34;;;;;;;4.47;1.85;;;;;;;33.12;29.49;93309.31;4992380;28;20416;-81
2022/05/27 12:05:09;;;;;;;11.23;2.40;;;;;;;31.40;32.15;93308.44;4992129;28;20057;-81
2022/05/27 12:07:40;;;;;;;;;;;;;;;31.59;31.56;93297.94;4991522;28;20136;-81
2022/05/27 12:10:20;;;;;;;5.57;2.10;;;;;;;31.22;31.98;93289.38;4992659;28;19933;-80
2022/05/27 12:12:52;;;;;;;6.90;2.67;;;;;;;30.78;32.58;93291.63;4991928;28;20137;-81